Terminal Aerodrome Forecast
Issued by NWS

Home | Current Version | Previous Version | Text Only | Print | Product List | Glossary On
Versions: 1 2 3 4 5 6 7 8 9 10 11 12 13 14 15 16 17 18 19 20 21 22 23 24
000
FTUS41 KRLX 010539
TAFCKB
TAF
KCKB 010539Z 0106/0206 14007KT 6SM -RA BR OVC020
     FM010800 17008KT 6SM -SHRA OVC020
     FM011200 19006KT 6SM -SHRA OVC035
     FM011600 21006KT P6SM -SHRA VCTS OVC040CB=

USA.gov is the U.S. government's official web portal to all federal, state and local government web resources and services.